Flight Track Log - Related Links

Times and Time Zones

All times are in EDT time to prevent confusion due to time zone crossing. See the MAL8062 flight status page for this flight to view local times or setup timezone preferences in your user account.

Time Position Orientation Groundspeed Altitude Reporting Facility
EDT Latitude Longitude Course Direction KTS MPH feet Rate Location/Type
Fri 07:23:45 AM 46.0333 -64.7167 199° South 270 311 8,700  Level Moncton Center
Fri 07:24:45 AM 45.9667 -64.6333 139° Southeast 310 357 11,500 2,950 Climbing Moncton Center
Fri 07:25:45 AM 45.8833 -64.5333 140° Southeast 370 426 14,600 2,650 Climbing Moncton Center
Fri 07:26:45 AM 45.8000 -64.4500 145° Southeast 370 426 16,800 1,150 Climbing Moncton Center
Fri 07:27:00 AM 45.7525 -64.3303 145° Southeast  Level Estimated
Fri 07:27:45 AM 45.7167 -64.3500 140° Southeast 380 437 16,900  Level Moncton Center
Fri 07:28:45 AM 45.6333 -64.2500 140° Southeast 380 437 16,900 50 Level Moncton Center
Fri 07:29:45 AM 45.5500 -64.1500 140° Southeast 380 437 17,000 50 Climbing Moncton Center
Fri 07:30:45 AM 45.4667 -64.0667 145° Southeast 380 437 17,000 -1,300 Level Moncton Center
Fri 07:31:45 AM 45.4000 -63.9167 122° Southeast 390 449 14,400 -2,800 Descending Moncton Center
Fri 07:32:45 AM 45.3333 -63.8333 139° Southeast 390 449 11,400 -2,300 Descending Moncton Center
Fri 07:33:45 AM 45.2667 -63.7000 125° Southeast 350 403 9,800 -1,700 Descending Moncton Center
Fri 07:34:45 AM 45.2167 -63.6167 130° Southeast 290 334 8,000 -1,750 Descending Moncton Center
Fri 07:35:45 AM 45.1667 -63.5500 137° Southeast 280 322 6,300 -1,700 Descending Moncton Center
Fri 07:36:45 AM 45.1167 -63.4500 125° Southeast 280 322 4,600 -1,200 Descending Moncton Center
Fri 07:37:45 AM 45.0833 -63.3833 125° Southeast 250 288 3,900 -550 Descending Moncton Center
Fri 07:38:45 AM 45.0333 -63.3333 145° Southeast 190 219 3,500 -200 Descending Moncton Center
Fri 07:39:45 AM 45.0000 -63.3833 227° Southwest 160 184 3,500 -400 Level Moncton Center
Fri 07:40:45 AM 44.9667 -63.4000 199° South 150 173 2,700 -850 Descending Moncton Center
Fri 07:41:45 AM 44.9333 -63.4333 215° Southwest 150 173 1,800 -750 Descending Moncton Center
Fri 07:42:45 AM 44.9000 -63.4500 200° South 100 115 1,200 -600 Descending Moncton Center
Fri 07:43:45 AM 44.8667 -63.5000 227° Southwest 110 127 600 -400 Descending Moncton Center
Fri 07:44:45 AM 44.8500 -63.5000 180° South 110 127 400 -200 Descending Moncton Center

Login

Don't have an account? Register now (free) for customized features, flight alerts, and more!